sensor_id;sensor_type;location;lat;lon;timestamp;temperature;humidity
3190;DHT22;1606;51.946;10.558;2024-02-14T00:01:07;10.20;99.90
3190;DHT22;1606;51.946;10.558;2024-02-14T00:03:35;10.10;99.90
3190;DHT22;1606;51.946;10.558;2024-02-14T00:06:06;10.10;99.90
3190;DHT22;1606;51.946;10.558;2024-02-14T00:08:35;10.20;99.90
3190;DHT22;1606;51.946;10.558;2024-02-14T00:11:04;10.30;99.90
3190;DHT22;1606;51.946;10.558;2024-02-14T00:13:33;10.20;99.90
3190;DHT22;1606;51.946;10.558;2024-02-14T00:16:01;10.30;99.90
3190;DHT22;1606;51.946;10.558;2024-02-14T00:18:30;10.30;99.90
3190;DHT22;1606;51.946;10.558;2024-02-14T00:20:58;10.20;99.90
3190;DHT22;1606;51.946;10.558;2024-02-14T00:23:27;10.10;99.90
3190;DHT22;1606;51.946;10.558;2024-02-14T00:25:55;10.00;99.90
3190;DHT22;1606;51.946;10.558;2024-02-14T00:28:23;10.00;99.90
3190;DHT22;1606;51.946;10.558;2024-02-14T00:30:53;10.10;99.90
3190;DHT22;1606;51.946;10.558;2024-02-14T00:33:21;10.20;99.90
3190;DHT22;1606;51.946;10.558;2024-02-14T00:35:49;10.20;99.90
3190;DHT22;1606;51.946;10.558;2024-02-14T00:38:17;10.30;99.90
3190;DHT22;1606;51.946;10.558;2024-02-14T00:40:46;10.30;99.90
3190;DHT22;1606;51.946;10.558;2024-02-14T00:43:14;10.40;99.90
3190;DHT22;1606;51.946;10.558;2024-02-14T00:45:42;10.40;99.90
3190;DHT22;1606;51.946;10.558;2024-02-14T00:48:10;10.40;99.90
3190;DHT22;1606;51.946;10.558;2024-02-14T00:50:38;10.40;99.90
3190;DHT22;1606;51.946;10.558;2024-02-14T00:53:06;10.50;99.90
3190;DHT22;1606;51.946;10.558;2024-02-14T00:55:34;10.40;99.90
3190;DHT22;1606;51.946;10.558;2024-02-14T00:58:03;10.30;99.90
3190;DHT22;1606;51.946;10.558;2024-02-14T01:00:32;10.50;99.90
3190;DHT22;1606;51.946;10.558;2024-02-14T01:03:02;10.60;99.90
3190;DHT22;1606;51.946;10.558;2024-02-14T01:05:30;10.60;99.90
3190;DHT22;1606;51.946;10.558;2024-02-14T01:07:58;10.60;99.90
3190;DHT22;1606;51.946;10.558;2024-02-14T01:10:26;10.40;99.90
3190;DHT22;1606;51.946;10.558;2024-02-14T01:12:54;10.30;99.90
3190;DHT22;1606;51.946;10.558;2024-02-14T01:15:24;10.30;99.90
3190;DHT22;1606;51.946;10.558;2024-02-14T01:17:52;10.40;99.90
3190;DHT22;1606;51.946;10.558;2024-02-14T01:20:21;10.50;99.90
3190;DHT22;1606;51.946;10.558;2024-02-14T01:22:49;10.40;99.90
3190;DHT22;1606;51.946;10.558;2024-02-14T01:25:17;10.40;99.90
3190;DHT22;1606;51.946;10.558;2024-02-14T01:27:44;10.30;99.90
3190;DHT22;1606;51.946;10.558;2024-02-14T01:30:12;10.30;99.90
3190;DHT22;1606;51.946;10.558;2024-02-14T01:32:42;10.40;99.90
3190;DHT22;1606;51.946;10.558;2024-02-14T01:35:10;10.40;99.90
3190;DHT22;1606;51.946;10.558;2024-02-14T01:37:38;10.50;99.90
3190;DHT22;1606;51.946;10.558;2024-02-14T01:40:07;10.70;99.90
3190;DHT22;1606;51.946;10.558;2024-02-14T01:42:35;10.80;99.90
3190;DHT22;1606;51.946;10.558;2024-02-14T01:45:04;10.80;99.90
3190;DHT22;1606;51.946;10.558;2024-02-14T01:47:32;10.70;99.90
3190;DHT22;1606;51.946;10.558;2024-02-14T01:50:03;10.60;99.90
3190;DHT22;1606;51.946;10.558;2024-02-14T01:52:31;10.70;99.90
3190;DHT22;1606;51.946;10.558;2024-02-14T01:54:59;10.80;99.90
3190;DHT22;1606;51.946;10.558;2024-02-14T01:57:27;10.80;99.90
3190;DHT22;1606;51.946;10.558;2024-02-14T01:59:56;10.90;99.90
3190;DHT22;1606;51.946;10.558;2024-02-14T02:02:26;10.90;99.90
3190;DHT22;1606;51.946;10.558;2024-02-14T02:04:55;10.90;99.90
3190;DHT22;1606;51.946;10.558;2024-02-14T02:07:24;10.80;99.90
3190;DHT22;1606;51.946;10.558;2024-02-14T02:09:52;10.90;99.90
3190;DHT22;1606;51.946;10.558;2024-02-14T02:12:20;10.90;99.90
3190;DHT22;1606;51.946;10.558;2024-02-14T02:14:48;11.00;99.90
3190;DHT22;1606;51.946;10.558;2024-02-14T02:17:16;10.80;99.90
3190;DHT22;1606;51.946;10.558;2024-02-14T02:19:44;10.80;99.90
3190;DHT22;1606;51.946;10.558;2024-02-14T02:22:12;10.90;99.90
3190;DHT22;1606;51.946;10.558;2024-02-14T02:24:41;11.00;99.90
3190;DHT22;1606;51.946;10.558;2024-02-14T02:27:09;10.90;99.90
3190;DHT22;1606;51.946;10.558;2024-02-14T02:29:37;10.90;99.90
3190;DHT22;1606;51.946;10.558;2024-02-14T02:32:05;10.70;99.90
3190;DHT22;1606;51.946;10.558;2024-02-14T02:34:35;10.70;99.90
3190;DHT22;1606;51.946;10.558;2024-02-14T02:37:06;10.60;99.90
3190;DHT22;1606;51.946;10.558;2024-02-14T02:39:36;10.80;99.90
3190;DHT22;1606;51.946;10.558;2024-02-14T02:42:05;10.80;99.90
3190;DHT22;1606;51.946;10.558;2024-02-14T02:44:33;10.80;99.90
3190;DHT22;1606;51.946;10.558;2024-02-14T02:47:01;10.80;99.90
3190;DHT22;1606;51.946;10.558;2024-02-14T02:49:28;10.80;99.90
3190;DHT22;1606;51.946;10.558;2024-02-14T02:51:56;10.80;99.90
3190;DHT22;1606;51.946;10.558;2024-02-14T02:54:24;10.80;99.90
3190;DHT22;1606;51.946;10.558;2024-02-14T02:56:52;10.80;99.90
3190;DHT22;1606;51.946;10.558;2024-02-14T02:59:21;10.80;99.90
3190;DHT22;1606;51.946;10.558;2024-02-14T03:01:49;10.80;99.90
3190;DHT22;1606;51.946;10.558;2024-02-14T03:04:17;10.90;99.90
3190;DHT22;1606;51.946;10.558;2024-02-14T03:06:45;10.80;99.90
3190;DHT22;1606;51.946;10.558;2024-02-14T03:09:13;10.70;99.90
3190;DHT22;1606;51.946;10.558;2024-02-14T03:11:41;10.80;99.90
3190;DHT22;1606;51.946;10.558;2024-02-14T03:14:09;10.60;99.90
3190;DHT22;1606;51.946;10.558;2024-02-14T03:16:38;10.60;99.90
3190;DHT22;1606;51.946;10.558;2024-02-14T03:19:06;10.60;99.90
3190;DHT22;1606;51.946;10.558;2024-02-14T03:21:34;10.70;99.90
3190;DHT22;1606;51.946;10.558;2024-02-14T03:24:02;10.90;99.90
3190;DHT22;1606;51.946;10.558;2024-02-14T03:26:32;11.00;99.90
3190;DHT22;1606;51.946;10.558;2024-02-14T03:29:00;10.90;99.90
3190;DHT22;1606;51.946;10.558;2024-02-14T03:31:28;10.80;99.90
3190;DHT22;1606;51.946;10.558;2024-02-14T03:33:57;10.80;99.90
3190;DHT22;1606;51.946;10.558;2024-02-14T03:36:25;10.80;99.90
3190;DHT22;1606;51.946;10.558;2024-02-14T03:38:55;10.70;99.90
3190;DHT22;1606;51.946;10.558;2024-02-14T03:41:23;10.80;99.90
3190;DHT22;1606;51.946;10.558;2024-02-14T03:43:51;10.80;99.90
3190;DHT22;1606;51.946;10.558;2024-02-14T03:46:21;10.90;99.90
3190;DHT22;1606;51.946;10.558;2024-02-14T03:48:48;10.90;99.90
3190;DHT22;1606;51.946;10.558;2024-02-14T03:51:18;11.10;99.90
3190;DHT22;1606;51.946;10.558;2024-02-14T03:53:46;11.10;99.90
3190;DHT22;1606;51.946;10.558;2024-02-14T03:56:14;11.00;99.90
3190;DHT22;1606;51.946;10.558;2024-02-14T03:58:43;11.00;99.90
3190;DHT22;1606;51.946;10.558;2024-02-14T04:01:11;10.90;99.90
3190;DHT22;1606;51.946;10.558;2024-02-14T04:03:38;10.90;99.90
3190;DHT22;1606;51.946;10.558;2024-02-14T04:06:06;10.90;99.90
3190;DHT22;1606;51.946;10.558;2024-02-14T04:08:36;10.80;99.90
3190;DHT22;1606;51.946;10.558;2024-02-14T04:11:04;10.90;99.90
3190;DHT22;1606;51.946;10.558;2024-02-14T04:13:32;10.90;99.90
3190;DHT22;1606;51.946;10.558;2024-02-14T04:16:00;10.90;99.90
3190;DHT22;1606;51.946;10.558;2024-02-14T04:18:28;10.90;99.90
3190;DHT22;1606;51.946;10.558;2024-02-14T04:20:56;10.80;99.90
3190;DHT22;1606;51.946;10.558;2024-02-14T04:23:23;10.70;99.90
3190;DHT22;1606;51.946;10.558;2024-02-14T04:25:54;10.50;99.90
3190;DHT22;1606;51.946;10.558;2024-02-14T04:28:21;10.40;99.90
3190;DHT22;1606;51.946;10.558;2024-02-14T04:30:49;10.50;99.90
3190;DHT22;1606;51.946;10.558;2024-02-14T04:33:17;10.60;99.90
3190;DHT22;1606;51.946;10.558;2024-02-14T04:35:45;10.60;99.90
3190;DHT22;1606;51.946;10.558;2024-02-14T04:38:13;10.70;99.90
3190;DHT22;1606;51.946;10.558;2024-02-14T04:40:41;10.70;99.90
3190;DHT22;1606;51.946;10.558;2024-02-14T04:43:10;10.70;99.90
3190;DHT22;1606;51.946;10.558;2024-02-14T04:45:38;10.80;99.90
3190;DHT22;1606;51.946;10.558;2024-02-14T04:48:07;10.60;99.90
3190;DHT22;1606;51.946;10.558;2024-02-14T04:50:35;10.60;99.90
3190;DHT22;1606;51.946;10.558;2024-02-14T04:53:04;10.70;99.90
3190;DHT22;1606;51.946;10.558;2024-02-14T04:55:32;10.70;99.90
3190;DHT22;1606;51.946;10.558;2024-02-14T04:57:59;10.90;99.90
3190;DHT22;1606;51.946;10.558;2024-02-14T05:00:28;11.10;99.90
3190;DHT22;1606;51.946;10.558;2024-02-14T05:02:56;11.20;99.90
3190;DHT22;1606;51.946;10.558;2024-02-14T05:05:24;11.20;99.90
3190;DHT22;1606;51.946;10.558;2024-02-14T05:07:52;10.90;99.90
3190;DHT22;1606;51.946;10.558;2024-02-14T05:10:20;10.80;99.90
3190;DHT22;1606;51.946;10.558;2024-02-14T05:12:48;10.90;99.90
3190;DHT22;1606;51.946;10.558;2024-02-14T05:15:16;10.80;99.90
3190;DHT22;1606;51.946;10.558;2024-02-14T05:17:45;10.70;99.90
3190;DHT22;1606;51.946;10.558;2024-02-14T05:20:13;10.50;99.90
3190;DHT22;1606;51.946;10.558;2024-02-14T05:22:41;10.60;99.90
3190;DHT22;1606;51.946;10.558;2024-02-14T05:25:09;10.50;99.90
3190;DHT22;1606;51.946;10.558;2024-02-14T05:27:38;10.40;99.90
3190;DHT22;1606;51.946;10.558;2024-02-14T05:30:07;10.40;99.90
3190;DHT22;1606;51.946;10.558;2024-02-14T05:32:36;10.50;99.90
3190;DHT22;1606;51.946;10.558;2024-02-14T05:35:06;10.60;99.90
3190;DHT22;1606;51.946;10.558;2024-02-14T05:37:34;10.70;99.90
3190;DHT22;1606;51.946;10.558;2024-02-14T05:40:06;10.90;99.90
3190;DHT22;1606;51.946;10.558;2024-02-14T05:42:34;10.90;99.90
3190;DHT22;1606;51.946;10.558;2024-02-14T05:45:03;10.90;99.90
3190;DHT22;1606;51.946;10.558;2024-02-14T05:47:32;10.80;99.90
3190;DHT22;1606;51.946;10.558;2024-02-14T05:50:00;10.60;99.90
3190;DHT22;1606;51.946;10.558;2024-02-14T05:52:30;10.80;99.90
3190;DHT22;1606;51.946;10.558;2024-02-14T05:54:58;10.80;99.90
3190;DHT22;1606;51.946;10.558;2024-02-14T05:57:26;10.60;99.90
3190;DHT22;1606;51.946;10.558;2024-02-14T05:59:53;10.40;99.90
3190;DHT22;1606;51.946;10.558;2024-02-14T06:02:23;10.60;99.90
3190;DHT22;1606;51.946;10.558;2024-02-14T06:04:51;10.50;99.90
3190;DHT22;1606;51.946;10.558;2024-02-14T06:07:19;10.60;99.90
3190;DHT22;1606;51.946;10.558;2024-02-14T06:09:48;10.40;99.90
3190;DHT22;1606;51.946;10.558;2024-02-14T06:12:16;10.40;99.90
3190;DHT22;1606;51.946;10.558;2024-02-14T06:14:44;10.50;99.90
3190;DHT22;1606;51.946;10.558;2024-02-14T06:17:12;10.50;99.90
3190;DHT22;1606;51.946;10.558;2024-02-14T06:19:40;10.60;99.90
3190;DHT22;1606;51.946;10.558;2024-02-14T06:22:08;10.80;99.90
3190;DHT22;1606;51.946;10.558;2024-02-14T06:24:37;10.90;99.90
3190;DHT22;1606;51.946;10.558;2024-02-14T06:27:06;10.70;99.90
3190;DHT22;1606;51.946;10.558;2024-02-14T06:29:34;10.70;99.90
3190;DHT22;1606;51.946;10.558;2024-02-14T06:32:02;10.50;99.90
3190;DHT22;1606;51.946;10.558;2024-02-14T06:34:31;10.50;99.90
3190;DHT22;1606;51.946;10.558;2024-02-14T06:36:59;10.50;99.90
3190;DHT22;1606;51.946;10.558;2024-02-14T06:39:28;10.70;99.90
3190;DHT22;1606;51.946;10.558;2024-02-14T06:41:56;10.90;99.90
3190;DHT22;1606;51.946;10.558;2024-02-14T06:44:25;11.10;99.90
3190;DHT22;1606;51.946;10.558;2024-02-14T06:46:53;11.10;99.90
3190;DHT22;1606;51.946;10.558;2024-02-14T06:49:21;11.00;99.90
3190;DHT22;1606;51.946;10.558;2024-02-14T06:51:49;11.10;99.90
3190;DHT22;1606;51.946;10.558;2024-02-14T06:54:16;11.00;99.90
3190;DHT22;1606;51.946;10.558;2024-02-14T06:56:46;11.00;99.90
3190;DHT22;1606;51.946;10.558;2024-02-14T06:59:15;11.10;99.90
3190;DHT22;1606;51.946;10.558;2024-02-14T07:01:44;11.10;99.90
3190;DHT22;1606;51.946;10.558;2024-02-14T07:04:11;11.10;99.90
3190;DHT22;1606;51.946;10.558;2024-02-14T07:06:39;10.90;99.90
3190;DHT22;1606;51.946;10.558;2024-02-14T07:09:07;10.80;99.90
3190;DHT22;1606;51.946;10.558;2024-02-14T07:11:37;10.80;99.90
3190;DHT22;1606;51.946;10.558;2024-02-14T07:14:06;11.10;99.90
3190;DHT22;1606;51.946;10.558;2024-02-14T07:16:33;11.20;99.90
3190;DHT22;1606;51.946;10.558;2024-02-14T07:19:03;11.20;99.90
3190;DHT22;1606;51.946;10.558;2024-02-14T07:21:31;11.10;99.90
3190;DHT22;1606;51.946;10.558;2024-02-14T07:23:59;11.10;99.90
3190;DHT22;1606;51.946;10.558;2024-02-14T07:26:27;11.20;99.90
3190;DHT22;1606;51.946;10.558;2024-02-14T07:28:55;11.30;99.90
3190;DHT22;1606;51.946;10.558;2024-02-14T07:31:24;11.20;99.90
3190;DHT22;1606;51.946;10.558;2024-02-14T07:33:55;11.20;99.90
3190;DHT22;1606;51.946;10.558;2024-02-14T07:36:25;11.30;99.90
3190;DHT22;1606;51.946;10.558;2024-02-14T07:38:53;11.30;99.90
3190;DHT22;1606;51.946;10.558;2024-02-14T07:41:20;11.10;99.90
3190;DHT22;1606;51.946;10.558;2024-02-14T07:43:48;11.10;99.90
3190;DHT22;1606;51.946;10.558;2024-02-14T07:46:18;11.10;99.90
3190;DHT22;1606;51.946;10.558;2024-02-14T07:48:46;11.00;99.90
3190;DHT22;1606;51.946;10.558;2024-02-14T07:51:15;10.90;99.90
3190;DHT22;1606;51.946;10.558;2024-02-14T07:53:44;10.80;99.90
3190;DHT22;1606;51.946;10.558;2024-02-14T07:56:12;11.00;99.90
3190;DHT22;1606;51.946;10.558;2024-02-14T07:58:40;11.10;99.90
3190;DHT22;1606;51.946;10.558;2024-02-14T08:01:08;11.00;99.90
3190;DHT22;1606;51.946;10.558;2024-02-14T08:03:36;11.00;99.90
3190;DHT22;1606;51.946;10.558;2024-02-14T08:06:04;10.90;99.90
3190;DHT22;1606;51.946;10.558;2024-02-14T08:08:32;10.80;99.90
3190;DHT22;1606;51.946;10.558;2024-02-14T08:11:01;10.90;99.90
3190;DHT22;1606;51.946;10.558;2024-02-14T08:13:29;10.80;99.90
3190;DHT22;1606;51.946;10.558;2024-02-14T08:15:57;10.90;99.90
3190;DHT22;1606;51.946;10.558;2024-02-14T08:18:25;10.80;99.90
3190;DHT22;1606;51.946;10.558;2024-02-14T08:20:54;11.00;99.90
3190;DHT22;1606;51.946;10.558;2024-02-14T08:23:22;11.00;99.90
3190;DHT22;1606;51.946;10.558;2024-02-14T08:25:50;10.80;99.90
3190;DHT22;1606;51.946;10.558;2024-02-14T08:28:19;10.90;99.90
3190;DHT22;1606;51.946;10.558;2024-02-14T08:30:47;10.80;99.90
3190;DHT22;1606;51.946;10.558;2024-02-14T08:33:15;10.90;99.90
3190;DHT22;1606;51.946;10.558;2024-02-14T08:35:43;10.80;99.90
3190;DHT22;1606;51.946;10.558;2024-02-14T08:38:11;10.80;99.90
3190;DHT22;1606;51.946;10.558;2024-02-14T08:40:39;10.80;99.90
3190;DHT22;1606;51.946;10.558;2024-02-14T08:43:07;10.70;99.90
3190;DHT22;1606;51.946;10.558;2024-02-14T08:45:36;10.90;99.90
3190;DHT22;1606;51.946;10.558;2024-02-14T08:48:05;10.90;99.90
3190;DHT22;1606;51.946;10.558;2024-02-14T08:50:34;10.90;99.90
3190;DHT22;1606;51.946;10.558;2024-02-14T08:53:02;11.00;99.90
3190;DHT22;1606;51.946;10.558;2024-02-14T08:55:30;10.90;99.90
3190;DHT22;1606;51.946;10.558;2024-02-14T08:58:00;10.90;99.90
3190;DHT22;1606;51.946;10.558;2024-02-14T09:00:28;11.00;99.90
3190;DHT22;1606;51.946;10.558;2024-02-14T09:02:58;10.90;99.90
3190;DHT22;1606;51.946;10.558;2024-02-14T09:05:27;10.90;99.90
3190;DHT22;1606;51.946;10.558;2024-02-14T09:07:57;10.90;99.90
3190;DHT22;1606;51.946;10.558;2024-02-14T09:10:24;10.90;99.90
3190;DHT22;1606;51.946;10.558;2024-02-14T09:12:52;11.10;99.90
3190;DHT22;1606;51.946;10.558;2024-02-14T09:15:20;11.20;99.90
3190;DHT22;1606;51.946;10.558;2024-02-14T09:17:49;11.10;99.90
3190;DHT22;1606;51.946;10.558;2024-02-14T09:20:20;11.20;99.90
3190;DHT22;1606;51.946;10.558;2024-02-14T09:22:48;11.20;99.90
3190;DHT22;1606;51.946;10.558;2024-02-14T09:25:16;11.30;99.90
3190;DHT22;1606;51.946;10.558;2024-02-14T09:27:44;11.30;99.90
3190;DHT22;1606;51.946;10.558;2024-02-14T09:30:14;11.50;99.90
3190;DHT22;1606;51.946;10.558;2024-02-14T09:32:58;11.60;99.90
3190;DHT22;1606;51.946;10.558;2024-02-14T09:35:27;11.50;99.90
3190;DHT22;1606;51.946;10.558;2024-02-14T09:37:55;11.50;99.90
3190;DHT22;1606;51.946;10.558;2024-02-14T09:40:23;11.70;99.90
3190;DHT22;1606;51.946;10.558;2024-02-14T09:42:54;11.90;99.90
3190;DHT22;1606;51.946;10.558;2024-02-14T09:45:24;12.00;99.90
3190;DHT22;1606;51.946;10.558;2024-02-14T09:47:53;12.00;99.90
3190;DHT22;1606;51.946;10.558;2024-02-14T09:50:23;11.90;99.90
3190;DHT22;1606;51.946;10.558;2024-02-14T09:52:54;12.10;99.90
3190;DHT22;1606;51.946;10.558;2024-02-14T09:55:23;12.30;99.90
3190;DHT22;1606;51.946;10.558;2024-02-14T09:57:52;12.30;99.90
3190;DHT22;1606;51.946;10.558;2024-02-14T10:00:22;12.20;99.90
3190;DHT22;1606;51.946;10.558;2024-02-14T10:02:50;12.40;99.90
3190;DHT22;1606;51.946;10.558;2024-02-14T10:05:18;12.40;99.90
3190;DHT22;1606;51.946;10.558;2024-02-14T10:07:45;12.60;99.90
3190;DHT22;1606;51.946;10.558;2024-02-14T10:10:15;12.70;99.90
3190;DHT22;1606;51.946;10.558;2024-02-14T10:12:43;12.70;99.90
3190;DHT22;1606;51.946;10.558;2024-02-14T10:15:11;12.70;99.90
3190;DHT22;1606;51.946;10.558;2024-02-14T10:17:39;12.80;99.90
3190;DHT22;1606;51.946;10.558;2024-02-14T10:20:11;12.80;99.90
3190;DHT22;1606;51.946;10.558;2024-02-14T10:22:44;13.00;99.90
3190;DHT22;1606;51.946;10.558;2024-02-14T10:25:14;13.00;99.90
3190;DHT22;1606;51.946;10.558;2024-02-14T10:27:42;12.90;99.90
3190;DHT22;1606;51.946;10.558;2024-02-14T10:30:10;13.00;99.90
3190;DHT22;1606;51.946;10.558;2024-02-14T10:32:39;13.00;99.90
3190;DHT22;1606;51.946;10.558;2024-02-14T10:35:08;13.00;99.90
3190;DHT22;1606;51.946;10.558;2024-02-14T10:37:40;13.20;99.90
3190;DHT22;1606;51.946;10.558;2024-02-14T10:40:08;13.30;99.90
3190;DHT22;1606;51.946;10.558;2024-02-14T10:42:37;13.00;99.90
3190;DHT22;1606;51.946;10.558;2024-02-14T10:45:06;13.00;99.90
3190;DHT22;1606;51.946;10.558;2024-02-14T10:47:35;13.10;99.90
3190;DHT22;1606;51.946;10.558;2024-02-14T10:50:05;13.20;99.90
3190;DHT22;1606;51.946;10.558;2024-02-14T10:52:34;13.30;99.90
3190;DHT22;1606;51.946;10.558;2024-02-14T10:55:04;13.50;99.90
3190;DHT22;1606;51.946;10.558;2024-02-14T10:57:32;13.50;99.90
3190;DHT22;1606;51.946;10.558;2024-02-14T11:00:04;13.50;99.90
3190;DHT22;1606;51.946;10.558;2024-02-14T11:02:35;13.40;99.90
3190;DHT22;1606;51.946;10.558;2024-02-14T11:05:04;13.40;99.90
3190;DHT22;1606;51.946;10.558;2024-02-14T11:07:33;13.50;99.90
3190;DHT22;1606;51.946;10.558;2024-02-14T11:10:04;13.50;99.90
3190;DHT22;1606;51.946;10.558;2024-02-14T11:12:34;13.40;99.90
3190;DHT22;1606;51.946;10.558;2024-02-14T11:15:11;13.40;99.90
3190;DHT22;1606;51.946;10.558;2024-02-14T11:17:39;13.50;99.90
3190;DHT22;1606;51.946;10.558;2024-02-14T11:20:15;13.70;99.90
3190;DHT22;1606;51.946;10.558;2024-02-14T11:22:54;13.90;99.90
3190;DHT22;1606;51.946;10.558;2024-02-14T11:25:28;13.80;99.90
3190;DHT22;1606;51.946;10.558;2024-02-14T11:27:57;13.70;99.90
3190;DHT22;1606;51.946;10.558;2024-02-14T11:30:31;13.80;99.90
3190;DHT22;1606;51.946;10.558;2024-02-14T11:33:16;13.90;99.90
3190;DHT22;1606;51.946;10.558;2024-02-14T11:35:46;14.10;99.90
3190;DHT22;1606;51.946;10.558;2024-02-14T11:38:16;14.00;99.90
3190;DHT22;1606;51.946;10.558;2024-02-14T11:40:44;14.00;99.90
3190;DHT22;1606;51.946;10.558;2024-02-14T11:43:12;14.00;99.90
3190;DHT22;1606;51.946;10.558;2024-02-14T11:45:43;14.00;99.90
3190;DHT22;1606;51.946;10.558;2024-02-14T11:48:13;14.00;99.90
3190;DHT22;1606;51.946;10.558;2024-02-14T11:50:43;14.00;99.90
3190;DHT22;1606;51.946;10.558;2024-02-14T11:53:12;13.90;99.90
3190;DHT22;1606;51.946;10.558;2024-02-14T11:55:40;13.80;99.90
3190;DHT22;1606;51.946;10.558;2024-02-14T11:58:09;13.90;99.90
3190;DHT22;1606;51.946;10.558;2024-02-14T12:00:38;14.00;99.90
3190;DHT22;1606;51.946;10.558;2024-02-14T12:03:11;13.80;99.90
3190;DHT22;1606;51.946;10.558;2024-02-14T12:05:40;13.90;99.90
3190;DHT22;1606;51.946;10.558;2024-02-14T12:08:10;13.90;99.90
3190;DHT22;1606;51.946;10.558;2024-02-14T12:10:38;13.70;99.90
3190;DHT22;1606;51.946;10.558;2024-02-14T12:13:07;13.70;99.90
3190;DHT22;1606;51.946;10.558;2024-02-14T12:15:39;13.60;99.90
3190;DHT22;1606;51.946;10.558;2024-02-14T12:18:09;13.70;99.90
3190;DHT22;1606;51.946;10.558;2024-02-14T12:20:38;13.70;99.90
3190;DHT22;1606;51.946;10.558;2024-02-14T12:23:06;13.80;99.90
3190;DHT22;1606;51.946;10.558;2024-02-14T12:25:34;13.80;99.90
3190;DHT22;1606;51.946;10.558;2024-02-14T12:28:02;13.70;99.90
3190;DHT22;1606;51.946;10.558;2024-02-14T12:30:43;13.90;99.90
3190;DHT22;1606;51.946;10.558;2024-02-14T12:33:13;14.00;99.90
3190;DHT22;1606;51.946;10.558;2024-02-14T12:35:42;13.90;99.90
3190;DHT22;1606;51.946;10.558;2024-02-14T12:38:12;13.80;99.90
3190;DHT22;1606;51.946;10.558;2024-02-14T12:40:41;13.90;99.90
3190;DHT22;1606;51.946;10.558;2024-02-14T12:43:11;13.80;99.90
3190;DHT22;1606;51.946;10.558;2024-02-14T12:45:40;13.80;99.90
3190;DHT22;1606;51.946;10.558;2024-02-14T12:48:09;14.00;99.90
3190;DHT22;1606;51.946;10.558;2024-02-14T12:50:38;14.10;99.90
3190;DHT22;1606;51.946;10.558;2024-02-14T12:53:06;14.20;99.90
3190;DHT22;1606;51.946;10.558;2024-02-14T12:55:35;14.20;99.90
3190;DHT22;1606;51.946;10.558;2024-02-14T12:58:03;14.30;99.90
3190;DHT22;1606;51.946;10.558;2024-02-14T13:00:31;14.40;99.90
3190;DHT22;1606;51.946;10.558;2024-02-14T13:03:01;14.50;99.90
3190;DHT22;1606;51.946;10.558;2024-02-14T13:05:29;14.40;99.90
3190;DHT22;1606;51.946;10.558;2024-02-14T13:07:58;14.50;99.90
3190;DHT22;1606;51.946;10.558;2024-02-14T13:10:27;14.50;99.90
3190;DHT22;1606;51.946;10.558;2024-02-14T13:12:55;14.60;99.90
3190;DHT22;1606;51.946;10.558;2024-02-14T13:15:26;14.60;99.90
3190;DHT22;1606;51.946;10.558;2024-02-14T13:17:55;14.60;99.90
3190;DHT22;1606;51.946;10.558;2024-02-14T13:20:26;14.60;99.90
3190;DHT22;1606;51.946;10.558;2024-02-14T13:22:55;14.70;99.90
3190;DHT22;1606;51.946;10.558;2024-02-14T13:25:24;14.70;99.90
3190;DHT22;1606;51.946;10.558;2024-02-14T13:27:52;14.50;99.90
3190;DHT22;1606;51.946;10.558;2024-02-14T13:30:21;14.40;99.90
3190;DHT22;1606;51.946;10.558;2024-02-14T13:32:49;14.30;99.90
3190;DHT22;1606;51.946;10.558;2024-02-14T13:35:18;14.20;99.90
3190;DHT22;1606;51.946;10.558;2024-02-14T13:37:46;14.00;99.90
3190;DHT22;1606;51.946;10.558;2024-02-14T13:40:14;14.00;99.90
3190;DHT22;1606;51.946;10.558;2024-02-14T13:42:43;14.00;99.90
3190;DHT22;1606;51.946;10.558;2024-02-14T13:45:11;13.90;99.90
3190;DHT22;1606;51.946;10.558;2024-02-14T13:47:39;13.80;99.90
3190;DHT22;1606;51.946;10.558;2024-02-14T13:50:09;13.80;99.90
3190;DHT22;1606;51.946;10.558;2024-02-14T13:52:37;13.70;99.90
3190;DHT22;1606;51.946;10.558;2024-02-14T13:55:05;13.80;99.90
3190;DHT22;1606;51.946;10.558;2024-02-14T13:57:36;13.70;99.90
3190;DHT22;1606;51.946;10.558;2024-02-14T14:00:08;13.80;99.90
3190;DHT22;1606;51.946;10.558;2024-02-14T14:02:37;13.80;99.90
3190;DHT22;1606;51.946;10.558;2024-02-14T14:05:09;13.90;99.90
3190;DHT22;1606;51.946;10.558;2024-02-14T14:07:38;13.90;99.90
3190;DHT22;1606;51.946;10.558;2024-02-14T14:10:23;14.10;99.90
3190;DHT22;1606;51.946;10.558;2024-02-14T14:12:52;14.20;99.90
3190;DHT22;1606;51.946;10.558;2024-02-14T14:15:21;14.30;99.90
3190;DHT22;1606;51.946;10.558;2024-02-14T14:17:50;14.40;99.90
3190;DHT22;1606;51.946;10.558;2024-02-14T14:20:19;14.30;99.90
3190;DHT22;1606;51.946;10.558;2024-02-14T14:22:47;14.40;99.90
3190;DHT22;1606;51.946;10.558;2024-02-14T14:25:15;14.10;99.90
3190;DHT22;1606;51.946;10.558;2024-02-14T14:27:45;14.10;99.90
3190;DHT22;1606;51.946;10.558;2024-02-14T14:30:13;14.00;99.90
3190;DHT22;1606;51.946;10.558;2024-02-14T14:32:42;13.90;99.90
3190;DHT22;1606;51.946;10.558;2024-02-14T14:35:10;13.80;99.90
3190;DHT22;1606;51.946;10.558;2024-02-14T14:37:38;14.00;99.90
3190;DHT22;1606;51.946;10.558;2024-02-14T14:40:07;14.20;99.90
3190;DHT22;1606;51.946;10.558;2024-02-14T14:42:37;14.20;99.90
3190;DHT22;1606;51.946;10.558;2024-02-14T14:45:06;14.20;99.90
3190;DHT22;1606;51.946;10.558;2024-02-14T14:47:34;14.20;99.90
3190;DHT22;1606;51.946;10.558;2024-02-14T14:50:05;14.30;99.90
3190;DHT22;1606;51.946;10.558;2024-02-14T14:52:34;14.10;99.90
3190;DHT22;1606;51.946;10.558;2024-02-14T14:55:03;14.20;99.90
3190;DHT22;1606;51.946;10.558;2024-02-14T14:57:31;14.40;99.90
3190;DHT22;1606;51.946;10.558;2024-02-14T14:59:59;14.50;99.90
3190;DHT22;1606;51.946;10.558;2024-02-14T15:02:27;14.60;99.90
3190;DHT22;1606;51.946;10.558;2024-02-14T15:04:55;14.60;99.90
3190;DHT22;1606;51.946;10.558;2024-02-14T15:07:24;14.60;99.90
3190;DHT22;1606;51.946;10.558;2024-02-14T15:09:52;14.40;99.90
3190;DHT22;1606;51.946;10.558;2024-02-14T15:12:20;14.40;99.90
3190;DHT22;1606;51.946;10.558;2024-02-14T15:14:52;14.30;99.90
3190;DHT22;1606;51.946;10.558;2024-02-14T15:17:20;14.20;99.90
3190;DHT22;1606;51.946;10.558;2024-02-14T15:19:49;14.10;99.90
3190;DHT22;1606;51.946;10.558;2024-02-14T15:22:17;13.90;99.90
3190;DHT22;1606;51.946;10.558;2024-02-14T15:24:46;14.00;99.90
3190;DHT22;1606;51.946;10.558;2024-02-14T15:27:14;14.10;99.90
3190;DHT22;1606;51.946;10.558;2024-02-14T15:29:48;14.00;99.90
3190;DHT22;1606;51.946;10.558;2024-02-14T15:32:33;14.00;99.90
3190;DHT22;1606;51.946;10.558;2024-02-14T15:35:19;13.90;99.90
3190;DHT22;1606;51.946;10.558;2024-02-14T15:37:47;13.90;99.90
3190;DHT22;1606;51.946;10.558;2024-02-14T15:40:18;14.00;99.90
3190;DHT22;1606;51.946;10.558;2024-02-14T15:42:45;14.00;99.90
3190;DHT22;1606;51.946;10.558;2024-02-14T15:45:14;13.80;99.90
3190;DHT22;1606;51.946;10.558;2024-02-14T15:47:44;13.90;99.90
3190;DHT22;1606;51.946;10.558;2024-02-14T15:50:12;13.90;99.90
3190;DHT22;1606;51.946;10.558;2024-02-14T15:52:40;14.00;99.90
3190;DHT22;1606;51.946;10.558;2024-02-14T15:55:08;14.10;99.90